PF1 CYKF-ZZZZ
Flight info
| Callsign | PF1 |
|---|---|
| Flight time | N/A |
| Altitude | |
| Route | |
| Aircraft | F16 |
Departure
| Time | 2026-05-04 00:09 |
|---|---|
| Airport | Region of Waterloo International Airport (CYKF) |
Arrival
| Time | N/A |
|---|---|
| Airport | ZZZZ |
| Time | Latitude | Longitude | Altitude | Speed | Heading |
|---|---|---|---|---|---|
| 2026-05-04 00:00 | 43.45684 | -80.38659 | 1033 ft | 0 kts | 175° |
| 2026-05-04 00:03 | 43.45687 | -80.38647 | 1033 ft | 4 kts | 51° |
| 2026-05-04 00:03 | 43.45729 | -80.38610 | 1033 ft | 8 kts | 23° |
| 2026-05-04 00:03 | 43.45770 | -80.38558 | 1033 ft | 9 kts | 66° |
| 2026-05-04 00:03 | 43.45802 | -80.38465 | 1033 ft | 13 kts | 65° |
| 2026-05-04 00:04 | 43.45844 | -80.38343 | 1033 ft | 16 kts | 64° |
| 2026-05-04 00:04 | 43.45892 | -80.38201 | 1033 ft | 17 kts | 65° |
| 2026-05-04 00:04 | 43.45942 | -80.38048 | 1033 ft | 18 kts | 66° |
| 2026-05-04 00:04 | 43.45995 | -80.37887 | 1033 ft | 19 kts | 65° |
| 2026-05-04 00:05 | 43.46052 | -80.37718 | 1033 ft | 20 kts | 65° |
| 2026-05-04 00:05 | 43.46110 | -80.37543 | 1033 ft | 20 kts | 67° |
| 2026-05-04 00:05 | 43.46172 | -80.37367 | 1034 ft | 21 kts | 65° |
| 2026-05-04 00:05 | 43.46233 | -80.37182 | 1033 ft | 22 kts | 64° |
| 2026-05-04 00:06 | 43.46297 | -80.36992 | 1034 ft | 22 kts | 66° |
| 2026-05-04 00:06 | 43.46359 | -80.36811 | 1034 ft | 13 kts | 66° |
| 2026-05-04 00:06 | 43.46400 | -80.36687 | 1034 ft | 15 kts | 65° |
| 2026-05-04 00:06 | 43.46467 | -80.36576 | 1034 ft | 16 kts | 17° |
| 2026-05-04 00:07 | 43.46575 | -80.36612 | 1033 ft | 19 kts | 284° |
| 2026-05-04 00:07 | 43.46529 | -80.36803 | 1032 ft | 80 kts | 244° |
| 2026-05-04 00:07 | 43.45924 | -80.38453 | 1101 ft | 292 kts | 232° |
| 2026-05-04 00:07 | 43.44540 | -80.40237 | 1151 ft | 260 kts | 211° |
| 2026-05-04 00:08 | 43.42792 | -80.41321 | 1198 ft | 287 kts | 196° |
| 2026-05-04 00:08 | 43.40877 | -80.41897 | 1361 ft | 286 kts | 193° |
| 2026-05-04 00:08 | 43.38739 | -80.42519 | 1418 ft | 341 kts | 194° |
| 2026-05-04 00:08 | 43.36477 | -80.43446 | 1473 ft | 338 kts | 202° |
| 2026-05-04 00:09 | 43.34268 | -80.45246 | 1539 ft | 461 kts | 229° |
| 2026-05-04 00:09 | 43.31982 | -80.48993 | 2565 ft | 525 kts | 231° |
| 2026-05-04 00:09 | 43.29732 | -80.52693 | 2747 ft | 486 kts | 231° |
| 2026-05-04 00:09 | 43.27506 | -80.56344 | 2498 ft | 532 kts | 231° |
| 2026-05-04 00:10 | 43.25018 | -80.60437 | 2378 ft | 570 kts | 231° |
| 2026-05-04 00:10 | 43.22512 | -80.64561 | 2492 ft | 569 kts | 231° |
| 2026-05-04 00:10 | 43.20429 | -80.68992 | 2603 ft | 533 kts | 249° |
| 2026-05-04 00:10 | 43.20681 | -80.73743 | 4200 ft | 509 kts | 308° |
| 2026-05-04 00:11 | 43.23346 | -80.76491 | 4971 ft | 475 kts | 337° |
| 2026-05-04 00:11 | 43.26517 | -80.76351 | 4850 ft | 464 kts | 13° |
| 2026-05-04 00:11 | 43.29286 | -80.74302 | 4644 ft | 458 kts | 54° |
| 2026-05-04 00:11 | 43.30893 | -80.70601 | 4599 ft | 448 kts | 58° |
| 2026-05-04 00:12 | 43.32454 | -80.66940 | 4564 ft | 441 kts | 58° |
| 2026-05-04 00:12 | 43.33992 | -80.63329 | 4511 ft | 435 kts | 58° |
| 2026-05-04 00:12 | 43.35509 | -80.59765 | 4444 ft | 430 kts | 58° |
| 2026-05-04 00:12 | 43.36921 | -80.56162 | 4311 ft | 427 kts | 63° |
| 2026-05-04 00:13 | 43.37950 | -80.52454 | 3974 ft | 398 kts | 65° |